createdAt,value
2018-12-15T00:00:16.627Z,48.60
2018-12-15T00:00:47.671Z,48.60
2018-12-15T00:01:18.740Z,48.70
2018-12-15T00:01:49.814Z,48.70
2018-12-15T00:02:20.852Z,48.70
2018-12-15T00:02:51.937Z,48.20
2018-12-15T00:03:22.976Z,48.70
2018-12-15T00:03:54.044Z,48.70
2018-12-15T00:04:25.136Z,49.10
2018-12-15T00:04:56.308Z,48.60
2018-12-15T00:05:27.379Z,48.60
2018-12-15T00:05:58.440Z,48.60
2018-12-15T00:06:29.504Z,48.70
2018-12-15T00:07:00.552Z,48.70
2018-12-15T00:07:31.627Z,48.80
2018-12-15T00:08:02.731Z,48.70
2018-12-15T00:08:33.779Z,48.70
2018-12-15T00:09:04.872Z,48.70
2018-12-15T00:09:35.915Z,48.70
2018-12-15T00:10:07.059Z,48.70
2018-12-15T00:10:38.079Z,48.80
2018-12-15T00:11:09.154Z,48.70
2018-12-15T00:11:40.198Z,48.80
2018-12-15T00:12:11.249Z,48.70
2018-12-15T00:12:42.412Z,48.70
2018-12-15T00:13:13.450Z,48.70
2018-12-15T00:13:44.504Z,48.80
2018-12-15T00:14:15.547Z,48.70
2018-12-15T00:14:46.657Z,48.70
2018-12-15T00:15:17.712Z,48.70
2018-12-15T00:15:48.757Z,48.80
2018-12-15T00:16:19.790Z,48.80
2018-12-15T00:16:50.903Z,48.80
2018-12-15T00:17:21.946Z,48.80
2018-12-15T00:17:52.984Z,48.80
2018-12-15T00:18:24.020Z,48.80
2018-12-15T00:18:55.082Z,48.80
2018-12-15T00:19:26.119Z,48.70
2018-12-15T00:19:57.168Z,48.70
2018-12-15T00:20:28.230Z,48.70
2018-12-15T00:20:59.244Z,48.70
2018-12-15T00:21:30.287Z,48.70
2018-12-15T00:22:01.332Z,48.70
2018-12-15T00:22:32.389Z,48.70
2018-12-15T00:23:03.477Z,48.60
2018-12-15T00:23:34.530Z,48.60
2018-12-15T00:24:05.608Z,48.70
2018-12-15T00:24:36.672Z,48.70
2018-12-15T00:25:07.741Z,48.70
2018-12-15T00:25:38.871Z,48.70
2018-12-15T00:26:09.904Z,48.60
2018-12-15T00:26:41.020Z,48.70
2018-12-15T00:27:12.076Z,48.70
2018-12-15T00:27:43.116Z,48.70
2018-12-15T00:28:14.210Z,48.70
2018-12-15T00:28:45.271Z,48.70
2018-12-15T00:29:16.314Z,48.70
2018-12-15T00:29:47.355Z,48.70
2018-12-15T00:30:18.487Z,48.60
2018-12-15T00:30:49.533Z,48.60
2018-12-15T00:31:20.579Z,48.60
2018-12-15T00:31:51.716Z,48.60
2018-12-15T00:32:22.753Z,48.60
2018-12-15T00:32:53.800Z,48.70
2018-12-15T00:33:24.845Z,48.80
2018-12-15T00:33:55.893Z,48.80
2018-12-15T00:34:26.932Z,48.70
2018-12-15T00:34:57.972Z,48.80
2018-12-15T00:35:29.129Z,48.80
2018-12-15T00:36:00.174Z,48.70
2018-12-15T00:36:31.339Z,48.80
2018-12-15T00:37:02.360Z,48.70
2018-12-15T00:37:33.400Z,48.70
2018-12-15T00:38:04.502Z,48.70
2018-12-15T00:38:35.618Z,48.70
2018-12-15T00:39:06.816Z,48.70
2018-12-15T00:39:37.859Z,49.30
2018-12-15T00:40:08.907Z,48.70
2018-12-15T00:40:39.952Z,48.70
2018-12-15T00:41:11.015Z,48.70
2018-12-15T00:41:42.060Z,48.70
2018-12-15T00:42:13.106Z,48.70
2018-12-15T00:42:44.149Z,48.70
2018-12-15T00:43:15.192Z,48.70
2018-12-15T00:43:46.447Z,48.60
2018-12-15T00:44:17.484Z,48.60
2018-12-15T00:44:48.537Z,48.60
2018-12-15T00:45:19.590Z,48.60
2018-12-15T00:45:50.660Z,49.30
2018-12-15T00:46:21.703Z,48.50
2018-12-15T00:46:52.854Z,48.60
2018-12-15T00:47:23.926Z,48.60
2018-12-15T00:47:55.000Z,48.60
2018-12-15T00:48:26.055Z,48.60
2018-12-15T00:48:57.151Z,48.60
2018-12-15T00:49:28.243Z,48.60
2018-12-15T00:49:59.332Z,48.60
2018-12-15T00:50:30.447Z,48.60
2018-12-15T00:51:01.491Z,48.60
2018-12-15T00:51:32.562Z,48.80
2018-12-15T00:52:03.583Z,48.60
2018-12-15T00:52:34.651Z,48.60
2018-12-15T00:53:05.700Z,48.60
2018-12-15T00:53:36.740Z,48.60
2018-12-15T00:54:07.860Z,48.70
2018-12-15T00:54:38.915Z,48.70
2018-12-15T00:55:10.056Z,48.70
2018-12-15T00:55:41.132Z,48.80
2018-12-15T00:56:12.213Z,48.70
2018-12-15T00:56:43.339Z,48.70
2018-12-15T00:57:14.382Z,48.70
2018-12-15T00:57:45.500Z,48.70
2018-12-15T00:58:16.647Z,48.80
2018-12-15T00:58:47.665Z,48.80
2018-12-15T00:59:18.760Z,48.90
2018-12-15T00:59:49.800Z,48.90
2018-12-15T01:00:20.921Z,48.90
2018-12-15T01:00:52.060Z,48.90
2018-12-15T01:01:23.099Z,48.80
2018-12-15T01:01:54.138Z,48.80
2018-12-15T01:02:25.173Z,48.80
2018-12-15T01:02:56.267Z,48.80
2018-12-15T01:03:27.308Z,48.70
2018-12-15T01:03:58.413Z,48.70
2018-12-15T01:04:29.443Z,48.60
2018-12-15T01:05:00.483Z,48.70
2018-12-15T01:05:31.523Z,48.60
2018-12-15T01:06:02.584Z,48.60
2018-12-15T01:06:33.635Z,48.60
2018-12-15T01:07:04.679Z,48.50
2018-12-15T01:07:35.723Z,48.60
2018-12-15T01:08:06.758Z,48.50
2018-12-15T01:08:37.836Z,48.50
2018-12-15T01:09:08.855Z,48.40
2018-12-15T01:09:39.892Z,48.40
2018-12-15T01:10:10.931Z,48.40
2018-12-15T01:10:41.968Z,48.50
2018-12-15T01:11:13.007Z,48.50
2018-12-15T01:11:44.044Z,48.50
2018-12-15T01:12:15.161Z,48.50
2018-12-15T01:12:46.240Z,48.40
2018-12-15T01:13:17.300Z,48.50
2018-12-15T01:13:48.344Z,48.40
2018-12-15T01:14:19.395Z,48.50
2018-12-15T01:14:50.439Z,48.40
2018-12-15T01:15:21.552Z,48.40
2018-12-15T01:15:52.619Z,48.30
2018-12-15T01:16:23.661Z,48.30
2018-12-15T01:16:54.774Z,48.40
2018-12-15T01:17:25.833Z,48.50
2018-12-15T01:17:56.907Z,48.50
2018-12-15T01:18:27.956Z,48.50
2018-12-15T01:18:58.997Z,48.60
2018-12-15T01:19:30.075Z,48.60
2018-12-15T01:20:01.131Z,49.40
2018-12-15T01:20:32.263Z,48.60
2018-12-15T01:21:03.316Z,48.60
2018-12-15T01:21:34.361Z,48.60
2018-12-15T01:22:05.408Z,48.60
2018-12-15T01:22:36.452Z,48.60
2018-12-15T01:23:07.491Z,48.60
2018-12-15T01:23:38.535Z,48.50
2018-12-15T01:24:09.580Z,48.50
2018-12-15T01:24:40.644Z,48.50
2018-12-15T01:25:11.692Z,48.60
2018-12-15T01:25:42.730Z,48.60
2018-12-15T01:26:13.771Z,48.60
2018-12-15T01:26:44.813Z,48.60
2018-12-15T01:27:15.855Z,48.70
2018-12-15T01:27:46.900Z,48.60
2018-12-15T01:28:17.948Z,48.70
2018-12-15T01:28:48.983Z,48.60
2018-12-15T01:29:20.030Z,48.70
2018-12-15T01:29:51.067Z,48.70
2018-12-15T01:30:22.115Z,48.70
2018-12-15T01:30:53.156Z,48.70
2018-12-15T01:31:24.191Z,48.80
2018-12-15T01:31:55.233Z,48.70
2018-12-15T01:32:26.280Z,48.70
2018-12-15T01:32:57.327Z,48.70
2018-12-15T01:33:28.365Z,48.70
2018-12-15T01:33:59.421Z,48.80
2018-12-15T01:34:30.460Z,48.80
2018-12-15T01:35:01.499Z,48.80
2018-12-15T01:35:32.546Z,48.70
2018-12-15T01:36:03.584Z,48.70
2018-12-15T01:36:34.619Z,48.70
2018-12-15T01:37:05.654Z,48.70
2018-12-15T01:37:36.695Z,48.60
2018-12-15T01:38:07.753Z,48.60
2018-12-15T01:38:38.812Z,49.10
2018-12-15T01:39:09.856Z,48.50
2018-12-15T01:39:40.943Z,48.60
2018-12-15T01:40:11.983Z,48.60
2018-12-15T01:40:43.016Z,48.60
2018-12-15T01:41:14.144Z,48.60
2018-12-15T01:41:45.176Z,48.60
2018-12-15T01:42:16.222Z,48.60
2018-12-15T01:42:47.336Z,48.60
2018-12-15T01:43:18.372Z,48.60
2018-12-15T01:43:49.420Z,48.60
2018-12-15T01:44:20.471Z,48.60
2018-12-15T01:44:51.508Z,48.60
2018-12-15T01:45:22.547Z,48.60
2018-12-15T01:45:53.584Z,48.60
2018-12-15T01:46:24.623Z,48.50
2018-12-15T01:46:55.664Z,48.60
2018-12-15T01:47:27.099Z,48.60
2018-12-15T01:47:58.329Z,48.50
2018-12-15T01:48:29.375Z,48.50
2018-12-15T01:49:00.416Z,48.50
2018-12-15T01:49:31.463Z,48.50
2018-12-15T01:50:02.508Z,48.50
2018-12-15T01:50:33.553Z,48.50
2018-12-15T01:51:04.667Z,48.50
2018-12-15T01:51:35.703Z,48.50
2018-12-15T01:52:06.748Z,48.50
2018-12-15T01:52:37.788Z,48.50
2018-12-15T01:53:08.918Z,48.50
2018-12-15T01:53:39.972Z,48.60
2018-12-15T01:54:11.039Z,48.60
2018-12-15T01:54:42.167Z,48.60
2018-12-15T01:55:13.222Z,48.60
2018-12-15T01:55:44.253Z,48.60
2018-12-15T01:56:15.292Z,48.60
2018-12-15T01:56:46.344Z,48.50
2018-12-15T01:57:17.385Z,48.40
2018-12-15T01:57:48.437Z,48.50
2018-12-15T01:58:19.464Z,48.50
2018-12-15T01:58:50.500Z,48.50
2018-12-15T01:59:21.544Z,48.50
2018-12-15T01:59:52.581Z,48.50
2018-12-15T02:00:23.704Z,48.60
2018-12-15T02:00:54.750Z,48.60
2018-12-15T02:01:25.785Z,48.50
2018-12-15T02:01:56.823Z,48.50
2018-12-15T02:02:27.870Z,48.50
2018-12-15T02:02:58.907Z,48.50
2018-12-15T02:03:29.955Z,48.50
2018-12-15T02:04:00.994Z,48.40
2018-12-15T02:04:32.121Z,48.40
2018-12-15T02:05:03.167Z,48.40
2018-12-15T02:05:34.283Z,48.40
2018-12-15T02:06:05.337Z,48.40
2018-12-15T02:06:36.371Z,48.40
2018-12-15T02:07:07.439Z,48.40
2018-12-15T02:07:38.484Z,48.50
2018-12-15T02:08:09.532Z,48.40
2018-12-15T02:08:40.587Z,48.50
2018-12-15T02:09:11.620Z,48.40
2018-12-15T02:09:42.675Z,48.40
2018-12-15T02:10:13.711Z,48.50
2018-12-15T02:10:44.795Z,48.50
2018-12-15T02:11:15.848Z,48.40
2018-12-15T02:11:46.999Z,48.50
2018-12-15T02:12:18.046Z,48.50
2018-12-15T02:12:49.078Z,48.50
2018-12-15T02:13:20.147Z,48.50
2018-12-15T02:13:51.291Z,48.50
2018-12-15T02:14:22.308Z,48.60
2018-12-15T02:15:33.509Z,48.50
2018-12-15T02:16:04.543Z,48.50
2018-12-15T02:16:35.619Z,48.50
2018-12-15T02:17:06.754Z,48.60
2018-12-15T02:17:37.818Z,48.20
2018-12-15T02:18:08.891Z,48.70
2018-12-15T02:18:39.935Z,48.70
2018-12-15T02:19:10.992Z,48.80
2018-12-15T02:19:42.119Z,48.70
2018-12-15T02:20:13.175Z,48.70
2018-12-15T02:20:44.297Z,48.60
2018-12-15T02:21:15.338Z,48.60
2018-12-15T02:21:46.375Z,48.60
2018-12-15T02:22:17.451Z,48.60
2018-12-15T02:22:48.515Z,48.60
2018-12-15T02:23:19.637Z,48.50
2018-12-15T02:23:50.675Z,48.50
2018-12-15T02:24:21.723Z,48.40
2018-12-15T02:24:52.799Z,48.40
2018-12-15T02:25:23.861Z,48.40
2018-12-15T02:25:54.891Z,48.30
2018-12-15T02:26:25.955Z,48.30
2018-12-15T02:26:56.987Z,48.30
2018-12-15T02:27:28.047Z,48.40
2018-12-15T02:27:59.087Z,48.30
2018-12-15T02:28:30.146Z,48.30
2018-12-15T02:29:01.283Z,48.30
2018-12-15T02:29:32.324Z,48.30
2018-12-15T02:30:03.384Z,48.30
2018-12-15T02:30:34.459Z,48.30
2018-12-15T02:31:05.473Z,48.30
2018-12-15T02:31:36.564Z,48.30
2018-12-15T02:32:07.615Z,48.30
2018-12-15T02:32:38.655Z,48.30
2018-12-15T02:33:09.695Z,48.30
2018-12-15T02:33:40.730Z,48.30
2018-12-15T02:34:11.795Z,48.30
2018-12-15T02:34:42.843Z,48.30
2018-12-15T02:35:13.947Z,48.30
2018-12-15T02:35:45.113Z,48.30
2018-12-15T02:36:16.208Z,48.30
2018-12-15T02:36:47.266Z,48.30
2018-12-15T02:37:18.464Z,48.30
2018-12-15T02:37:49.525Z,48.40
2018-12-15T02:38:20.567Z,48.40
2018-12-15T02:38:51.612Z,48.50
2018-12-15T02:39:22.648Z,48.40
2018-12-15T02:39:53.727Z,48.50
2018-12-15T02:40:24.780Z,48.50
2018-12-15T02:40:55.836Z,48.40
2018-12-15T02:41:26.883Z,48.50
2018-12-15T02:41:57.929Z,48.50
2018-12-15T02:42:28.971Z,48.40
2018-12-15T02:43:00.057Z,48.50
2018-12-15T02:43:31.127Z,48.40
2018-12-15T02:44:02.309Z,48.50
2018-12-15T02:44:33.416Z,48.40
2018-12-15T02:45:04.532Z,48.50
2018-12-15T02:45:35.649Z,48.50
2018-12-15T02:46:06.708Z,48.50
2018-12-15T02:46:37.825Z,48.60
2018-12-15T02:47:08.863Z,48.60
2018-12-15T02:47:41.726Z,48.60
2018-12-15T02:48:12.971Z,48.60
2018-12-15T02:48:44.092Z,48.50
2018-12-15T02:49:15.156Z,48.60
2018-12-15T02:49:46.190Z,48.60
2018-12-15T02:50:17.340Z,48.60
2018-12-15T02:50:48.392Z,48.70
2018-12-15T02:51:19.441Z,48.60
2018-12-15T02:51:50.554Z,48.60
2018-12-15T02:52:21.695Z,48.60
2018-12-15T02:52:52.740Z,48.60
2018-12-15T02:53:23.789Z,48.60
2018-12-15T02:53:54.833Z,48.70
2018-12-15T02:54:25.890Z,48.60
2018-12-15T02:54:56.947Z,48.60
2018-12-15T02:55:27.992Z,48.50
2018-12-15T02:55:59.051Z,48.50
2018-12-15T02:56:30.100Z,48.40
2018-12-15T02:57:01.149Z,48.40
2018-12-15T02:57:32.268Z,48.50
2018-12-15T02:58:03.349Z,48.50
2018-12-15T02:58:34.399Z,48.50
2018-12-15T02:59:05.440Z,48.50
2018-12-15T02:59:36.477Z,48.50
2018-12-15T03:00:07.548Z,48.50
2018-12-15T03:00:38.593Z,48.50
2018-12-15T03:01:09.635Z,48.50
2018-12-15T03:01:40.684Z,48.50
2018-12-15T03:02:11.720Z,48.50
2018-12-15T03:02:42.765Z,48.40
2018-12-15T03:03:13.819Z,48.40
2018-12-15T03:03:44.851Z,48.40
2018-12-15T03:04:15.887Z,48.50
2018-12-15T03:04:46.943Z,48.40
2018-12-15T03:05:18.020Z,48.40
2018-12-15T03:06:33.083Z,48.40
2018-12-15T03:07:04.182Z,48.40
2018-12-15T03:07:35.279Z,48.30
2018-12-15T03:08:06.374Z,48.40
2018-12-15T03:08:37.486Z,48.40
2018-12-15T03:09:08.603Z,48.30
2018-12-15T03:09:39.702Z,48.30
2018-12-15T03:10:10.809Z,48.30
2018-12-15T03:10:41.905Z,48.30
2018-12-15T03:11:13.056Z,48.80
2018-12-15T03:11:44.182Z,48.30
2018-12-15T03:12:15.285Z,48.30
2018-12-15T03:12:46.461Z,48.30
2018-12-15T03:13:17.585Z,48.30
2018-12-15T03:13:48.684Z,48.40
2018-12-15T03:14:19.792Z,48.40
2018-12-15T03:14:50.973Z,48.40
2018-12-15T03:15:22.075Z,48.40
2018-12-15T03:15:53.163Z,48.40
2018-12-15T03:16:24.268Z,48.40
2018-12-15T03:16:55.386Z,48.40
2018-12-15T03:17:26.516Z,49.10
2018-12-15T03:17:57.651Z,48.40
2018-12-15T03:18:28.772Z,48.40
2018-12-15T03:18:59.866Z,48.50
2018-12-15T03:19:30.964Z,48.50
2018-12-15T03:20:02.090Z,48.50
2018-12-15T03:20:33.343Z,48.50
2018-12-15T03:21:04.642Z,48.60
2018-12-15T03:21:35.725Z,48.50
2018-12-15T03:22:06.878Z,48.40
2018-12-15T03:22:38.045Z,48.40
2018-12-15T03:23:09.137Z,48.40
2018-12-15T03:23:40.260Z,48.40
2018-12-15T03:24:11.370Z,48.30
2018-12-15T03:24:42.518Z,48.30
2018-12-15T03:25:13.769Z,48.30
2018-12-15T03:25:44.874Z,48.30
2018-12-15T03:26:15.969Z,48.30
2018-12-15T03:26:47.173Z,48.30
2018-12-15T03:27:18.265Z,48.30
2018-12-15T03:27:49.361Z,49.10
2018-12-15T03:28:20.494Z,48.40
2018-12-15T03:28:51.603Z,48.40
2018-12-15T03:29:22.742Z,48.40
2018-12-15T03:29:53.838Z,48.30
2018-12-15T03:30:24.965Z,48.30
2018-12-15T03:30:56.170Z,48.40
2018-12-15T03:31:27.262Z,48.40
2018-12-15T03:31:58.399Z,48.30
2018-12-15T03:32:29.618Z,48.30
2018-12-15T03:33:00.786Z,48.30
2018-12-15T03:33:31.915Z,48.30
2018-12-15T03:34:03.093Z,48.30
2018-12-15T03:34:34.184Z,48.40
2018-12-15T03:35:05.358Z,48.40
2018-12-15T03:35:36.514Z,48.40
2018-12-15T03:36:07.617Z,48.40
2018-12-15T03:36:38.712Z,48.40
2018-12-15T03:37:09.828Z,48.50
2018-12-15T03:37:40.927Z,48.50
2018-12-15T03:38:12.020Z,48.50
2018-12-15T03:38:43.116Z,48.40
2018-12-15T03:39:14.218Z,48.40
2018-12-15T03:39:45.315Z,48.40
2018-12-15T03:40:16.414Z,48.40
2018-12-15T03:40:47.543Z,48.40
2018-12-15T03:41:18.636Z,48.30
2018-12-15T03:41:49.733Z,48.30
2018-12-15T03:42:20.824Z,48.30
2018-12-15T03:42:51.920Z,48.30
2018-12-15T03:43:23.019Z,48.30
2018-12-15T03:43:54.108Z,48.30
2018-12-15T03:44:25.200Z,48.30
2018-12-15T03:44:56.303Z,48.30
2018-12-15T03:45:27.422Z,48.30
2018-12-15T03:45:58.518Z,48.30
2018-12-15T03:46:29.604Z,48.20
2018-12-15T03:47:00.725Z,48.20
2018-12-15T03:47:31.817Z,48.30
2018-12-15T03:48:02.915Z,48.60
2018-12-15T03:48:34.038Z,48.20
2018-12-15T03:49:05.127Z,48.20
2018-12-15T03:49:36.210Z,48.20
2018-12-15T03:50:07.301Z,48.20
2018-12-15T03:50:38.420Z,48.20
2018-12-15T03:51:09.509Z,48.20
2018-12-15T03:51:40.594Z,48.20
2018-12-15T03:52:11.695Z,48.20
2018-12-15T03:52:42.792Z,48.30
2018-12-15T03:53:13.889Z,48.20
2018-12-15T03:53:44.988Z,48.20
2018-12-15T03:54:16.186Z,48.10
2018-12-15T03:54:47.351Z,48.10
2018-12-15T03:55:18.448Z,48.30
2018-12-15T03:55:49.572Z,48.20
2018-12-15T03:56:20.690Z,48.20
2018-12-15T03:56:51.819Z,48.30
2018-12-15T03:57:22.907Z,48.30
2018-12-15T03:57:54.030Z,48.30
2018-12-15T03:58:25.120Z,48.30
2018-12-15T03:58:56.217Z,48.30
2018-12-15T03:59:27.313Z,48.30
2018-12-15T03:59:58.441Z,48.30
2018-12-15T04:00:29.537Z,48.30
2018-12-15T04:01:00.667Z,48.30
2018-12-15T04:01:31.851Z,48.30
2018-12-15T04:02:02.947Z,48.30
2018-12-15T04:02:34.054Z,47.90
2018-12-15T04:03:05.155Z,48.30
2018-12-15T04:03:36.267Z,48.30
2018-12-15T04:04:07.360Z,48.30
2018-12-15T04:04:38.456Z,48.30
2018-12-15T04:05:09.549Z,48.30
2018-12-15T04:05:40.679Z,48.30
2018-12-15T04:06:11.769Z,48.30
2018-12-15T04:06:42.878Z,48.30
2018-12-15T04:07:13.973Z,48.30
2018-12-15T04:07:45.062Z,48.40
2018-12-15T04:08:16.170Z,49.20
2018-12-15T04:08:47.262Z,48.40
2018-12-15T04:09:18.353Z,48.50
2018-12-15T04:09:49.458Z,48.50
2018-12-15T04:10:20.537Z,48.50
2018-12-15T04:10:51.655Z,48.50
2018-12-15T04:11:22.753Z,48.50
2018-12-15T04:11:53.847Z,48.50
2018-12-15T04:12:24.957Z,48.50
2018-12-15T04:12:56.064Z,48.60
2018-12-15T04:13:27.154Z,48.80
2018-12-15T04:13:58.260Z,48.50
2018-12-15T04:14:29.381Z,48.40
2018-12-15T04:15:00.480Z,48.50
2018-12-15T04:15:31.575Z,48.40
2018-12-15T04:16:02.680Z,48.40
2018-12-15T04:16:33.789Z,48.40
2018-12-15T04:17:04.880Z,48.60
2018-12-15T04:17:35.978Z,48.50
2018-12-15T04:18:07.075Z,48.50
2018-12-15T04:18:38.199Z,48.40
2018-12-15T04:19:09.307Z,48.30
2018-12-15T04:19:40.396Z,48.30
2018-12-15T04:20:11.499Z,48.30
2018-12-15T04:20:42.609Z,48.30
2018-12-15T04:21:13.712Z,48.70
2018-12-15T04:21:44.892Z,48.30
2018-12-15T04:22:16.135Z,48.30
2018-12-15T04:22:47.356Z,48.30
2018-12-15T04:23:18.448Z,49.00
2018-12-15T04:23:49.549Z,48.30
2018-12-15T04:24:20.652Z,48.30
2018-12-15T04:24:51.820Z,48.30
2018-12-15T04:25:22.924Z,48.20
2018-12-15T04:25:54.057Z,48.20
2018-12-15T04:26:25.317Z,48.20
2018-12-15T04:26:56.409Z,48.10
2018-12-15T04:27:27.513Z,48.10
2018-12-15T04:27:58.614Z,48.20
2018-12-15T04:28:29.700Z,48.10
2018-12-15T04:29:00.813Z,48.10
2018-12-15T04:29:31.905Z,48.10
2018-12-15T04:30:03.016Z,48.10
2018-12-15T04:30:34.121Z,48.20
2018-12-15T04:31:05.341Z,48.10
2018-12-15T04:31:36.441Z,48.20
2018-12-15T04:32:07.547Z,48.20
2018-12-15T04:32:44.969Z,48.20
2018-12-15T04:33:11.761Z,48.20
2018-12-15T04:33:42.887Z,48.40
2018-12-15T04:34:14.161Z,48.30
2018-12-15T04:34:45.246Z,48.30
2018-12-15T04:35:16.354Z,48.30
2018-12-15T04:35:47.478Z,48.40
2018-12-15T04:36:18.588Z,48.40
2018-12-15T04:36:49.670Z,48.40
2018-12-15T04:37:20.766Z,48.40
2018-12-15T04:37:51.865Z,48.40
2018-12-15T04:38:22.969Z,48.40
2018-12-15T04:38:54.083Z,48.40
2018-12-15T04:39:25.191Z,48.30
2018-12-15T04:39:56.307Z,48.30
2018-12-15T04:40:27.398Z,48.30
2018-12-15T04:40:58.506Z,48.30
2018-12-15T04:41:29.606Z,48.30
2018-12-15T04:42:00.707Z,48.30
2018-12-15T04:42:31.855Z,48.30
2018-12-15T04:43:03.031Z,48.30
2018-12-15T04:43:34.137Z,48.30
2018-12-15T04:44:05.248Z,48.30
2018-12-15T04:44:36.339Z,48.30
2018-12-15T04:45:07.535Z,48.30
2018-12-15T04:45:38.679Z,48.30
2018-12-15T04:46:09.844Z,48.30
2018-12-15T04:46:40.963Z,48.30
2018-12-15T04:47:12.071Z,48.30
2018-12-15T04:47:43.191Z,48.30
2018-12-15T04:48:14.291Z,48.40
2018-12-15T04:48:45.395Z,48.30
2018-12-15T04:49:16.575Z,48.30
2018-12-15T04:49:47.719Z,48.30
2018-12-15T04:50:18.815Z,48.30
2018-12-15T04:50:49.912Z,48.30
2018-12-15T04:51:21.017Z,48.30
2018-12-15T04:51:52.124Z,48.30
2018-12-15T04:52:23.218Z,48.20
2018-12-15T04:52:54.312Z,48.10
2018-12-15T04:53:25.409Z,48.10
2018-12-15T04:53:56.509Z,48.20
2018-12-15T04:54:27.607Z,48.30
2018-12-15T04:54:58.704Z,48.30
2018-12-15T04:55:29.866Z,48.30
2018-12-15T04:56:00.965Z,48.30
2018-12-15T04:56:32.070Z,48.40
2018-12-15T04:57:03.173Z,48.30
2018-12-15T04:57:34.262Z,48.30
2018-12-15T04:58:05.380Z,48.40
2018-12-15T04:58:36.461Z,48.30
2018-12-15T04:59:07.593Z,48.30
2018-12-15T04:59:38.726Z,48.30
2018-12-15T05:00:09.837Z,48.30
2018-12-15T05:00:40.946Z,48.30
2018-12-15T05:01:12.054Z,48.30
2018-12-15T05:01:43.137Z,48.20
2018-12-15T05:02:14.245Z,48.30
2018-12-15T05:02:45.345Z,48.30
2018-12-15T05:03:16.438Z,48.30
2018-12-15T05:03:47.546Z,48.30
2018-12-15T05:04:18.648Z,48.30
2018-12-15T05:04:49.747Z,48.30
2018-12-15T05:05:20.835Z,48.30
2018-12-15T05:05:51.934Z,48.30
2018-12-15T05:06:23.031Z,48.30
2018-12-15T05:06:54.147Z,48.20
2018-12-15T05:07:25.259Z,48.30
2018-12-15T05:07:56.366Z,48.20
2018-12-15T05:08:27.482Z,48.30
2018-12-15T05:08:58.578Z,48.30
2018-12-15T05:09:29.686Z,48.20
2018-12-15T05:10:00.782Z,48.20
2018-12-15T05:10:31.875Z,48.20
2018-12-15T05:11:03.036Z,48.20
2018-12-15T05:11:34.141Z,48.20
2018-12-15T05:12:05.253Z,48.10
2018-12-15T05:12:36.360Z,48.10
2018-12-15T05:13:07.456Z,48.10
2018-12-15T05:13:38.551Z,48.10
2018-12-15T05:14:09.655Z,48.20
2018-12-15T05:14:40.752Z,48.10
2018-12-15T05:15:11.843Z,48.20
2018-12-15T05:15:43.002Z,48.60
2018-12-15T05:16:14.108Z,48.20
2018-12-15T05:16:45.210Z,48.30
2018-12-15T05:17:16.308Z,48.30
2018-12-15T05:17:47.459Z,48.30
2018-12-15T05:18:18.686Z,48.30
2018-12-15T05:18:49.903Z,48.20
2018-12-15T05:19:20.993Z,48.30
2018-12-15T05:19:52.104Z,48.30
2018-12-15T05:20:23.200Z,48.20
2018-12-15T05:20:54.298Z,48.20
2018-12-15T05:21:25.401Z,48.30
2018-12-15T05:21:56.496Z,48.20
2018-12-15T05:22:27.586Z,48.30
2018-12-15T05:22:58.682Z,48.20
2018-12-15T05:23:29.787Z,48.20
2018-12-15T05:24:00.890Z,48.10
2018-12-15T05:24:31.965Z,48.20
2018-12-15T05:25:03.128Z,48.20
2018-12-15T05:25:34.320Z,48.20
2018-12-15T05:26:05.410Z,48.20
2018-12-15T05:26:36.513Z,48.20
2018-12-15T05:27:07.606Z,48.30
2018-12-15T05:27:38.698Z,48.30
2018-12-15T05:28:09.778Z,48.30
2018-12-15T05:28:40.877Z,48.30
2018-12-15T05:29:11.969Z,48.30
2018-12-15T05:29:43.066Z,48.30
2018-12-15T05:30:14.191Z,48.40
2018-12-15T05:30:45.289Z,48.40
2018-12-15T05:31:16.415Z,48.40
2018-12-15T05:31:47.531Z,48.40
2018-12-15T05:32:18.631Z,48.30
2018-12-15T05:32:49.728Z,48.30
2018-12-15T05:33:20.818Z,48.20
2018-12-15T05:33:51.939Z,48.30
2018-12-15T05:34:23.056Z,48.30
2018-12-15T05:34:54.207Z,48.30
2018-12-15T05:35:25.315Z,48.20
2018-12-15T05:35:56.404Z,48.80
2018-12-15T05:36:27.505Z,48.20
2018-12-15T05:36:58.600Z,48.20
2018-12-15T05:37:29.694Z,48.30
2018-12-15T05:38:00.888Z,48.20
2018-12-15T05:38:32.054Z,48.10
2018-12-15T05:39:03.156Z,48.10
2018-12-15T05:39:34.249Z,48.10
2018-12-15T05:40:05.396Z,48.10
2018-12-15T05:40:36.505Z,48.00
2018-12-15T05:41:07.593Z,48.00
2018-12-15T05:41:38.711Z,48.00
2018-12-15T05:42:09.832Z,48.00
2018-12-15T05:42:40.930Z,48.00
2018-12-15T05:43:12.016Z,48.00
2018-12-15T05:43:43.113Z,48.00
2018-12-15T05:44:14.242Z,48.00
2018-12-15T05:44:45.359Z,48.00
2018-12-15T05:45:16.468Z,48.00
2018-12-15T05:45:47.560Z,48.00
2018-12-15T05:46:18.758Z,48.00
2018-12-15T05:46:49.856Z,48.00
2018-12-15T05:47:20.967Z,48.00
2018-12-15T05:47:52.069Z,48.00
2018-12-15T05:48:25.286Z,48.00
2018-12-15T05:48:56.362Z,48.00
2018-12-15T05:49:27.585Z,48.00
2018-12-15T05:49:58.681Z,48.00
2018-12-15T05:50:29.786Z,47.80
2018-12-15T05:51:00.977Z,48.10
2018-12-15T05:51:32.154Z,48.10
2018-12-15T05:52:03.284Z,48.20
2018-12-15T05:52:34.387Z,48.20
2018-12-15T05:53:05.491Z,48.20
2018-12-15T05:53:36.592Z,48.20
2018-12-15T05:54:07.699Z,48.90
2018-12-15T05:54:38.796Z,48.30
2018-12-15T05:55:09.897Z,48.30
2018-12-15T05:55:41.058Z,48.30
2018-12-15T05:56:12.143Z,48.30
2018-12-15T05:56:43.252Z,48.30
2018-12-15T05:57:14.348Z,48.30
2018-12-15T05:57:45.456Z,48.30
2018-12-15T05:58:16.552Z,49.00
2018-12-15T05:58:47.640Z,48.30
2018-12-15T05:59:18.745Z,48.30
2018-12-15T05:59:49.828Z,48.30
2018-12-15T06:00:21.007Z,48.30
2018-12-15T06:00:52.097Z,48.30
2018-12-15T06:01:23.185Z,49.00
2018-12-15T06:01:54.350Z,48.30
2018-12-15T06:02:25.452Z,48.90
2018-12-15T06:02:56.612Z,48.30
2018-12-15T06:03:27.717Z,48.30
2018-12-15T06:03:58.811Z,48.30
2018-12-15T06:04:29.905Z,48.30
2018-12-15T06:05:00.992Z,48.30
2018-12-15T06:05:32.118Z,48.30
2018-12-15T06:06:03.213Z,48.20
2018-12-15T06:06:34.317Z,48.20
2018-12-15T06:07:05.417Z,48.20
2018-12-15T06:07:36.508Z,48.20
2018-12-15T06:08:07.604Z,48.20
2018-12-15T06:08:38.709Z,48.20
2018-12-15T06:09:09.809Z,48.10
2018-12-15T06:09:40.920Z,48.10
2018-12-15T06:10:12.018Z,48.10
2018-12-15T06:10:43.159Z,48.10
2018-12-15T06:11:14.297Z,48.10
2018-12-15T06:11:45.386Z,48.20
2018-12-15T06:12:16.514Z,48.20
2018-12-15T06:12:47.709Z,48.20
2018-12-15T06:13:18.823Z,48.20
2018-12-15T06:13:49.914Z,48.30
2018-12-15T06:14:21.010Z,48.20
2018-12-15T06:14:52.091Z,48.20
2018-12-15T06:15:23.214Z,48.30
2018-12-15T06:15:54.306Z,48.20
2018-12-15T06:16:25.398Z,48.20
2018-12-15T06:16:56.551Z,48.20
2018-12-15T06:17:27.630Z,48.10
2018-12-15T06:17:58.726Z,48.60
2018-12-15T06:18:31.724Z,48.10
2018-12-15T06:19:02.972Z,48.10
2018-12-15T06:19:34.075Z,48.10
2018-12-15T06:20:05.167Z,48.10
2018-12-15T06:20:36.279Z,48.10
2018-12-15T06:21:07.434Z,48.10
2018-12-15T06:21:38.528Z,48.00
2018-12-15T06:22:09.618Z,48.00
2018-12-15T06:22:40.716Z,47.90
2018-12-15T06:23:11.820Z,48.00
2018-12-15T06:23:42.919Z,48.50
2018-12-15T06:24:14.019Z,48.00
2018-12-15T06:24:45.149Z,48.00
2018-12-15T06:25:16.259Z,48.10
2018-12-15T06:25:47.364Z,48.20
2018-12-15T06:26:18.464Z,48.20
2018-12-15T06:26:49.653Z,48.20
2018-12-15T06:27:20.785Z,48.20
2018-12-15T06:27:52.002Z,48.20
2018-12-15T06:28:23.093Z,48.20
2018-12-15T06:28:54.279Z,48.80
2018-12-15T06:29:25.373Z,48.20
2018-12-15T06:29:56.519Z,48.30
2018-12-15T06:30:27.636Z,48.20
2018-12-15T06:30:58.738Z,48.20
2018-12-15T06:31:29.841Z,48.20
2018-12-15T06:32:00.932Z,48.20
2018-12-15T06:32:32.061Z,48.20
2018-12-15T06:33:03.163Z,48.20
2018-12-15T06:33:34.261Z,48.30
2018-12-15T06:34:05.347Z,48.30
2018-12-15T06:34:36.442Z,48.20
2018-12-15T06:35:07.531Z,48.20
2018-12-15T06:35:38.642Z,48.20
2018-12-15T06:36:09.721Z,48.20
2018-12-15T06:36:40.818Z,48.10
2018-12-15T06:37:11.909Z,48.10
2018-12-15T06:37:43.018Z,48.20
2018-12-15T06:38:14.110Z,48.10
2018-12-15T06:38:45.206Z,48.10
2018-12-15T06:39:16.303Z,48.10
2018-12-15T06:39:47.425Z,48.10
2018-12-15T06:40:18.620Z,48.10
2018-12-15T06:40:49.729Z,48.10
2018-12-15T06:41:20.825Z,48.10
2018-12-15T06:41:51.914Z,48.10